Alexandria, Pennsylvania
Current Conditions -  °F | °C
As of 4:26 AM on Friday 28 Nov 2014 (Local Time) from KAOO Reporting Station
Light Snow Light Snow  
Wind Chill: 19°   Ceiling: 2300
Heat Index: 27°   Visibility: 6mi
Dew Point: 24°   Wind: 8mph
Humidity: 89%   Direction: 310°NW
Pressure: 30.15"   Gusts: NA
Location:  40.56°N, 78.1°W
Report Text: KAOO 280926Z AUTO 31007KT 6SM -SN BR FEW016 BKN023 OVC050 M03/M04 A3015 RMK AO2 P0000 T10281044
Loading
Personal Weather Stations






























Interactive Weather Map New forecast layout! Learn more

10-Day Weather Forecast

Advertisements
Track Severe Weather on mobile